Time;durP1;ratioP1;P1;durP2;ratioP2;P2;SDS_P1;SDS_P2;PMS_P1;PMS_P2;Temp;Humidity;BMP_temperature;BMP_pressure;BME280_temperature;BME280_humidity;BME280_pressure;Samples;Min_cycle;Max_cycle;Signal;HPM_P1;HPM_P2
2022/08/26 00:00:14;;;;;;;32.53;28.98;;;21.40;99.90;;;;;;5107969;28;20419;-69
2022/08/26 00:02:40;;;;;;;42.28;31.50;;;21.40;99.90;;;;;;5106902;27;20048;-69
2022/08/26 00:05:06;;;;;;;40.22;33.05;;;21.40;99.90;;;;;;5107695;27;20036;-69
2022/08/26 00:07:31;;;;;;;42.38;36.20;;;21.40;99.90;;;;;;5090437;28;20112;-69
2022/08/26 00:09:57;;;;;;;42.55;31.63;;;21.30;99.90;;;;;;5108715;27;20042;-69
2022/08/26 00:12:23;;;;;;;41.67;32.17;;;21.30;99.90;;;;;;5108371;28;20055;-69
2022/08/26 00:14:49;;;;;;;38.78;33.45;;;21.30;99.90;;;;;;5107666;27;20044;-69
2022/08/26 00:17:14;;;;;;;41.97;32.08;;;21.30;99.90;;;;;;5109028;28;20043;-69
2022/08/26 00:19:40;;;;;;;37.38;32.45;;;21.30;99.90;;;;;;5107061;28;20039;-69
2022/08/26 00:22:06;;;;;;;37.30;30.70;;;21.30;99.90;;;;;;5092884;28;20126;-69
2022/08/26 00:24:31;;;;;;;33.35;29.17;;;21.30;99.90;;;;;;5086168;28;20044;-69
2022/08/26 00:26:57;;;;;;;37.75;30.92;;;21.30;99.90;;;;;;5111221;27;20051;-70
2022/08/26 00:29:23;;;;;;;39.97;31.60;;;21.20;99.90;;;;;;5089647;28;20048;-69
2022/08/26 00:31:49;;;;;;;40.45;34.22;;;21.20;99.90;;;;;;5103739;28;22017;-69
2022/08/26 00:34:15;;;;;;;43.28;37.20;;;21.20;99.90;;;;;;5082301;28;20571;-69
2022/08/26 00:36:41;;;;;;;45.47;37.85;;;21.10;99.90;;;;;;5088092;28;20050;-69
2022/08/26 00:39:08;;;;;;;42.28;37.72;;;21.10;99.90;;;;;;5106831;28;20458;-69
2022/08/26 00:41:36;;;;;;;52.83;39.78;;;21.10;99.90;;;;;;5105599;28;20082;-69
2022/08/26 00:44:02;;;;;;;49.13;43.28;;;21.10;99.90;;;;;;5085339;28;20134;-70
2022/08/26 00:46:32;;;;;;;55.17;44.53;;;21.00;99.90;;;;;;5102021;28;20122;-70
2022/08/26 00:49:26;;;;;;;53.83;46.47;;;21.00;99.90;;;;;;5088416;28;20063;-69
2022/08/26 00:51:55;;;;;;;63.20;52.58;;;21.00;99.90;;;;;;5076962;28;20235;-69
2022/08/26 00:54:24;;;;;;;61.53;52.17;;;20.90;99.90;;;;;;5089326;28;20081;-69
2022/08/26 00:56:56;;;;;;;59.25;52.78;;;20.90;99.90;;;;;;5090859;28;20562;-69
2022/08/26 00:59:24;;;;;;;66.88;52.90;;;20.80;99.90;;;;;;5088894;28;20039;-69
2022/08/26 01:01:50;;;;;;;60.40;51.67;;;20.80;99.90;;;;;;5097809;27;20039;-69
2022/08/26 01:04:19;;;;;;;73.93;62.25;;;20.70;99.90;;;;;;5110243;27;20487;-69
2022/08/26 01:06:47;;;;;;;74.00;61.88;;;20.70;99.90;;;;;;5101975;27;20039;-69
2022/08/26 01:09:13;;;;;;;92.07;63.25;;;20.70;99.90;;;;;;5108164;28;20397;-69
2022/08/26 01:11:39;;;;;;;83.03;67.50;;;20.60;99.90;;;;;;5106022;27;20035;-69
2022/08/26 01:14:07;;;;;;;84.90;63.40;;;20.60;99.90;;;;;;5107697;28;20063;-69
2022/08/26 01:16:34;;;;;;;81.57;65.57;;;20.60;99.90;;;;;;5106780;27;20196;-69
2022/08/26 01:19:17;;;;;;;77.23;61.17;;;20.60;99.90;;;;;;5098019;28;20112;-69
2022/08/26 01:21:50;;;;;;;94.85;70.47;;;20.60;99.90;;;;;;5108159;27;20051;-69
2022/08/26 01:24:17;;;;;;;92.30;74.65;;;20.60;99.90;;;;;;5107908;28;20044;-69
2022/08/26 01:26:45;;;;;;;89.32;66.65;;;20.50;99.90;;;;;;5102671;28;20043;-69
2022/08/26 01:29:17;;;;;;;93.40;62.55;;;20.60;99.90;;;;;;5086319;28;20063;-69
2022/08/26 01:31:47;;;;;;;75.93;61.78;;;20.60;99.90;;;;;;5101154;28;20101;-69
2022/08/26 01:34:29;;;;;;;94.72;70.28;;;20.50;99.90;;;;;;5079544;28;20044;-69
2022/08/26 01:37:27;;;;;;;98.32;71.63;;;20.50;99.90;;;;;;5099982;27;20047;-69
2022/08/26 01:39:55;;;;;;;99.20;70.35;;;20.50;99.90;;;;;;5091574;27;20159;-69
2022/08/26 01:42:23;;;;;;;95.70;64.57;;;20.50;99.90;;;;;;5107387;27;20043;-69
2022/08/26 01:45:02;;;;;;;78.28;61.28;;;20.50;99.90;;;;;;5086238;28;20052;-69
2022/08/26 01:47:29;;;;;;;85.10;59.60;;;20.40;99.90;;;;;;5084265;28;20119;-69
2022/08/26 01:49:57;;;;;;;100.90;70.70;;;20.40;99.90;;;;;;5089004;28;20056;-69
2022/08/26 01:52:25;;;;;;;94.18;58.67;;;20.40;99.90;;;;;;5088575;28;20047;-69
2022/08/26 01:54:52;;;;;;;90.00;64.70;;;20.40;99.90;;;;;;5107629;28;20048;-69
2022/08/26 01:57:19;;;;;;;94.33;65.10;;;20.50;99.90;;;;;;5087259;28;20047;-69
2022/08/26 01:59:48;;;;;;;98.20;64.07;;;20.40;99.90;;;;;;5103976;28;20134;-69
2022/08/26 02:02:16;;;;;;;80.22;56.13;;;20.40;99.90;;;;;;5107666;28;20051;-69
2022/08/26 02:05:14;;;;;;;96.45;58.47;;;20.50;99.90;;;;;;5105758;28;20047;-69
2022/08/26 02:07:40;;;;;;;72.30;53.30;;;20.50;99.90;;;;;;5081079;28;20055;-69
2022/08/26 02:10:09;;;;;;;96.07;56.13;;;20.50;99.90;;;;;;5102281;28;20031;-68
2022/08/26 02:12:36;;;;;;;80.82;55.05;;;20.50;99.90;;;;;;5087586;28;20125;-69
2022/08/26 02:15:07;;;;;;;91.57;57.63;;;20.50;99.90;;;;;;5101084;28;20400;-69
2022/08/26 02:17:38;;;;;;;83.65;53.72;;;20.50;99.90;;;;;;5106790;28;20055;-69
2022/08/26 02:20:05;;;;;;;80.70;52.25;;;20.60;99.90;;;;;;5088547;28;20122;-69
2022/08/26 02:22:31;;;;;;;80.43;53.88;;;20.60;99.90;;;;;;5105260;28;20806;-69
2022/08/26 02:25:00;;;;;;;78.85;51.60;;;20.60;99.90;;;;;;5104286;28;20409;-69
2022/08/26 02:27:32;;;;;;;68.35;46.30;;;20.50;99.90;;;;;;5106644;28;20050;-69
2022/08/26 02:30:13;;;;;;;70.95;50.75;;;20.60;99.90;;;;;;5088081;28;20047;-69
2022/08/26 02:32:39;;;;;;;75.60;47.70;;;20.60;99.90;;;;;;5104831;28;20416;-69
2022/08/26 02:35:06;;;;;;;72.07;51.08;;;20.60;99.90;;;;;;5103693;28;20048;-69
2022/08/26 02:37:32;;;;;;;64.80;50.30;;;20.60;99.90;;;;;;5088212;28;20050;-68
2022/08/26 02:39:58;;;;;;;77.95;52.70;;;20.60;99.90;;;;;;5105445;28;20044;-69
2022/08/26 02:42:24;;;;;;;70.20;50.28;;;20.70;99.90;;;;;;5084149;28;20078;-69
2022/08/26 02:44:49;;;;;;;76.28;51.20;;;20.60;99.90;;;;;;5105209;28;20126;-69
2022/08/26 02:47:15;;;;;;;72.40;48.80;;;20.60;99.90;;;;;;5106769;28;20044;-69
2022/08/26 02:49:44;;;;;;;81.25;51.72;;;20.60;99.90;;;;;;5088834;28;20036;-69
2022/08/26 02:52:11;;;;;;;68.50;46.47;;;20.60;99.90;;;;;;5086807;28;20621;-69
2022/08/26 02:54:37;;;;;;;75.78;48.70;;;20.60;99.90;;;;;;5087171;28;20043;-69
2022/08/26 02:57:04;;;;;;;79.53;52.58;;;20.60;99.90;;;;;;5104247;28;20036;-69
2022/08/26 02:59:30;;;;;;;59.42;44.55;;;20.50;99.90;;;;;;5088009;28;20055;-69
2022/08/26 03:01:56;;;;;;;58.50;45.72;;;20.50;99.90;;;;;;5102791;28;20090;-69
2022/08/26 03:04:23;;;;;;;69.05;49.50;;;20.60;99.90;;;;;;5100383;28;20052;-69
2022/08/26 03:06:49;;;;;;;56.08;41.97;;;20.50;99.90;;;;;;5103826;28;20048;-69
2022/08/26 03:09:17;;;;;;;56.70;43.10;;;20.60;99.90;;;;;;5088780;28;20077;-69
2022/08/26 03:11:44;;;;;;;69.90;48.22;;;20.60;99.90;;;;;;5091388;28;20051;-69
2022/08/26 03:14:10;;;;;;;63.93;48.60;;;20.60;99.90;;;;;;5110330;27;20062;-69
2022/08/26 03:16:36;;;;;;;65.82;49.10;;;20.60;99.90;;;;;;5092022;28;20043;-69
2022/08/26 03:19:05;;;;;;;76.18;50.47;;;20.60;99.90;;;;;;5109645;28;20458;-69
2022/08/26 03:21:31;;;;;;;75.55;54.22;;;20.60;99.90;;;;;;5110196;28;20476;-69
2022/08/26 03:23:57;;;;;;;65.93;47.08;;;20.60;99.90;;;;;;5107342;28;20040;-69
2022/08/26 03:26:23;;;;;;;76.55;51.35;;;20.60;99.90;;;;;;5088369;28;20484;-69
2022/08/26 03:31:33;;;;;;;81.03;47.50;;;20.60;99.90;;;;;;5107742;28;20610;-69
2022/08/26 03:33:58;;;;;;;76.63;48.53;;;20.60;99.90;;;;;;5107732;27;20097;-69
2022/08/26 03:36:24;;;;;;;66.80;47.92;;;20.60;99.90;;;;;;5109594;28;20523;-69
2022/08/26 03:38:50;;;;;;;79.97;50.08;;;20.60;99.90;;;;;;5104090;28;20381;-69
2022/08/26 03:41:16;;;;;;;68.38;48.95;;;20.70;99.90;;;;;;5108159;28;20039;-69
2022/08/26 03:43:42;;;;;;;82.22;53.75;;;20.70;99.90;;;;;;5087123;28;20051;-69
2022/08/26 03:46:10;;;;;;;67.60;48.58;;;20.60;99.90;;;;;;5091083;28;20051;-69
2022/08/26 03:48:37;;;;;;;66.22;50.75;;;20.70;99.90;;;;;;5091121;28;20624;-69
2022/08/26 03:51:10;;;;;;;66.50;50.10;;;20.60;99.90;;;;;;5106882;28;20052;-69
2022/08/26 03:53:36;;;;;;;77.60;54.28;;;20.70;99.90;;;;;;5089292;28;20521;-69
2022/08/26 03:56:02;;;;;;;73.80;49.65;;;20.70;99.90;;;;;;5104942;28;20127;-69
2022/08/26 03:58:28;;;;;;;68.93;52.45;;;20.70;99.90;;;;;;5107529;28;20070;-69
2022/08/26 04:00:53;;;;;;;75.55;50.58;;;20.70;99.90;;;;;;5090421;28;20083;-69
2022/08/26 04:03:56;;;;;;;72.57;52.42;;;20.70;99.90;;;;;;5090380;28;20473;-69
2022/08/26 04:06:06;;;;;;;72.38;50.13;;;20.70;99.90;;;;;;5084426;28;20414;-68
2022/08/26 04:08:31;;;;;;;76.63;53.33;;;20.80;99.90;;;;;;5104965;28;20043;-69
2022/08/26 04:11:00;;;;;;;69.30;47.10;;;20.70;99.90;;;;;;5107544;28;20038;-69
2022/08/26 04:13:26;;;;;;;75.10;50.95;;;20.70;99.90;;;;;;5086204;28;20530;-69
2022/08/26 04:15:52;;;;;;;69.10;47.65;;;20.80;99.90;;;;;;5106195;28;20039;-69
2022/08/26 04:18:18;;;;;;;75.63;48.70;;;20.70;99.90;;;;;;5107222;28;20027;-69
2022/08/26 04:20:44;;;;;;;73.70;45.28;;;20.70;99.90;;;;;;5106979;28;20039;-69
2022/08/26 04:23:10;;;;;;;64.00;47.17;;;20.70;99.90;;;;;;5108511;28;20052;-68
2022/08/26 04:25:36;;;;;;;63.38;45.85;;;20.80;99.90;;;;;;5106343;28;20047;-68
2022/08/26 04:28:02;;;;;;;69.43;47.78;;;20.70;99.90;;;;;;5104124;27;20043;-68
2022/08/26 04:30:27;;;;;;;56.95;42.90;;;20.70;99.90;;;;;;5108627;27;20067;-68
2022/08/26 04:32:53;;;;;;;62.47;40.60;;;20.70;99.90;;;;;;5107228;27;20071;-68
2022/08/26 04:35:19;;;;;;;69.65;45.47;;;20.70;99.90;;;;;;5108257;28;21196;-68
2022/08/26 04:37:44;;;;;;;61.42;42.47;;;20.70;99.90;;;;;;5106322;28;20427;-68
2022/08/26 04:40:10;;;;;;;62.33;45.25;;;20.70;99.90;;;;;;5106163;28;20047;-68
2022/08/26 04:42:36;;;;;;;60.92;44.50;;;20.70;99.90;;;;;;5103031;28;20046;-68
2022/08/26 04:45:02;;;;;;;76.18;41.25;;;20.70;99.90;;;;;;5105409;28;20071;-68
2022/08/26 04:47:29;;;;;;;58.55;41.45;;;20.70;99.90;;;;;;5104626;28;20702;-69
2022/08/26 04:49:56;;;;;;;57.65;41.38;;;20.70;99.90;;;;;;5103843;27;20074;-69
2022/08/26 04:52:22;;;;;;;71.23;43.73;;;20.70;99.90;;;;;;5109216;27;20043;-69
2022/08/26 04:54:47;;;;;;;56.53;36.13;;;20.70;99.90;;;;;;5113222;27;20054;-69
2022/08/26 04:57:13;;;;;;;58.95;37.60;;;20.80;99.90;;;;;;5107287;28;20039;-69
2022/08/26 04:59:39;;;;;;;58.47;37.22;;;20.70;99.90;;;;;;5092725;28;20055;-69
2022/08/26 05:02:05;;;;;;;54.05;36.67;;;20.80;99.90;;;;;;5105012;28;20058;-69
2022/08/26 05:04:32;;;;;;;57.85;38.67;;;20.80;99.90;;;;;;5106887;28;20035;-69
2022/08/26 05:06:57;;;;;;;56.63;38.25;;;20.80;99.90;;;;;;5106930;28;20050;-69
2022/08/26 05:09:24;;;;;;;44.63;32.90;;;20.80;99.90;;;;;;5096870;27;20035;-69
2022/08/26 05:11:50;;;;;;;53.35;39.75;;;20.80;99.90;;;;;;5090644;28;20048;-69
2022/08/26 05:14:17;;;;;;;56.05;35.03;;;20.80;99.90;;;;;;5084615;28;20054;-69
2022/08/26 05:16:43;;;;;;;55.72;35.22;;;20.80;99.90;;;;;;5078865;28;20063;-69
2022/08/26 05:19:10;;;;;;;43.33;32.35;;;20.80;99.90;;;;;;5100697;28;20580;-69
2022/08/26 05:21:37;;;;;;;50.97;30.83;;;20.80;99.90;;;;;;5101044;27;20047;-69
2022/08/26 05:24:03;;;;;;;55.28;34.42;;;20.80;99.90;;;;;;5103000;28;20091;-69
2022/08/26 05:26:30;;;;;;;49.72;33.90;;;20.80;99.90;;;;;;5085473;28;20449;-69
2022/08/26 05:28:56;;;;;;;47.78;32.47;;;20.80;99.90;;;;;;5104145;28;20051;-69
2022/08/26 05:31:25;;;;;;;55.40;37.00;;;20.80;99.90;;;;;;5099836;27;20072;-69
2022/08/26 05:33:51;;;;;;;55.00;35.67;;;20.90;99.90;;;;;;5102638;28;20500;-70
2022/08/26 05:36:20;;;;;;;58.00;37.80;;;20.80;99.90;;;;;;5100826;27;20039;-69
2022/08/26 05:38:46;;;;;;;40.33;31.95;;;20.80;99.90;;;;;;5099492;28;20070;-70
2022/08/26 05:41:31;;;;;;;54.47;33.47;;;20.90;99.90;;;;;;5086424;28;20501;-72
2022/08/26 05:43:59;;;;;;;52.95;30.83;;;20.90;99.90;;;;;;5106888;27;20042;-71
2022/08/26 05:46:26;;;;;;;48.60;34.00;;;20.90;99.90;;;;;;5086968;28;20233;-71
2022/08/26 05:48:53;;;;;;;51.33;32.55;;;21.00;99.90;;;;;;5086530;28;20052;-71
2022/08/26 05:51:19;;;;;;;51.40;34.53;;;20.90;99.90;;;;;;5106857;28;20034;-71
2022/08/26 05:53:45;;;;;;;42.75;31.42;;;20.90;99.90;;;;;;5085128;28;20044;-71
2022/08/26 05:56:11;;;;;;;42.90;31.95;;;21.00;99.90;;;;;;5099940;28;20795;-70
2022/08/26 05:58:39;;;;;;;44.97;32.55;;;21.00;99.90;;;;;;5080049;28;20434;-71
2022/08/26 06:01:15;;;;;;;44.53;33.10;;;20.90;99.90;;;;;;5077174;28;20044;-71
2022/08/26 06:03:45;;;;;;;51.53;36.38;;;21.00;99.90;;;;;;5087248;28;20040;-71
2022/08/26 06:06:17;;;;;;;54.80;36.95;;;21.00;99.90;;;;;;5101077;28;20056;-71
2022/08/26 06:08:44;;;;;;;41.08;30.75;;;21.00;99.90;;;;;;5096839;28;20039;-71
2022/08/26 06:11:12;;;;;;;47.35;32.28;;;21.10;99.90;;;;;;5105995;28;20056;-71
2022/08/26 06:13:38;;;;;;;40.83;32.40;;;21.00;99.90;;;;;;5088391;28;20443;-71
2022/08/26 06:16:09;;;;;;;49.33;34.75;;;21.10;99.90;;;;;;5084776;28;20071;-71
2022/08/26 06:18:38;;;;;;;49.45;33.75;;;21.10;99.90;;;;;;5087276;28;20051;-70
2022/08/26 06:21:15;;;;;;;46.85;33.20;;;21.10;99.90;;;;;;5106397;28;20044;-70
2022/08/26 06:26:26;;;;;;;45.33;30.65;;;21.10;99.90;;;;;;5075950;28;20111;-70
2022/08/26 06:28:54;;;;;;;42.47;29.58;;;21.10;99.90;;;;;;5107269;28;20180;-70
2022/08/26 06:31:21;;;;;;;51.55;31.73;;;21.10;99.90;;;;;;5107611;28;20043;-70
2022/08/26 06:33:47;;;;;;;44.65;34.25;;;21.10;99.90;;;;;;5103893;28;20047;-70
2022/08/26 06:36:18;;;;;;;42.97;29.10;;;21.10;99.90;;;;;;5101803;28;21573;-70
2022/08/26 06:38:45;;;;;;;44.97;28.85;;;21.20;99.90;;;;;;5080402;28;20127;-70
2022/08/26 06:41:11;;;;;;;48.30;31.67;;;21.10;99.90;;;;;;5098285;28;20056;-70
2022/08/26 06:43:37;;;;;;;46.90;29.77;;;21.10;99.90;;;;;;5082162;28;20404;-70
2022/08/26 06:46:07;;;;;;;45.95;29.95;;;21.10;99.90;;;;;;5102481;28;20139;-70
2022/08/26 06:48:33;;;;;;;49.83;31.52;;;21.20;99.90;;;;;;5101495;28;20186;-70
2022/08/26 06:51:05;;;;;;;44.20;28.67;;;21.20;99.90;;;;;;5081149;28;20051;-69
2022/08/26 06:53:30;;;;;;;50.47;33.28;;;21.20;99.90;;;;;;5098441;28;20058;-70
2022/08/26 06:55:57;;;;;;;50.78;30.77;;;21.20;99.90;;;;;;5101148;28;20043;-71
2022/08/26 06:58:23;;;;;;;35.85;27.15;;;21.20;99.90;;;;;;5099875;28;20051;-70
2022/08/26 07:00:49;;;;;;;49.38;28.40;;;21.30;99.90;;;;;;5077231;28;20047;-70
2022/08/26 07:03:15;;;;;;;54.25;26.70;;;21.40;99.90;;;;;;5076761;28;20063;-71
2022/08/26 07:05:41;;;;;;;43.65;27.83;;;21.40;99.90;;;;;;5084124;28;20039;-72
2022/08/26 07:08:06;;;;;;;43.78;25.70;;;21.50;99.90;;;;;;5088447;28;20040;-71
2022/08/26 07:10:32;;;;;;;53.05;26.70;;;21.50;99.90;;;;;;5082562;28;20032;-71
2022/08/26 07:12:58;;;;;;;40.60;26.17;;;21.60;99.90;;;;;;5081408;28;20065;-70
2022/08/26 07:15:23;;;;;;;41.92;23.42;;;21.60;99.90;;;;;;5080909;28;21314;-71
2022/08/26 07:17:49;;;;;;;39.30;24.05;;;21.60;99.90;;;;;;5077495;28;20070;-70
2022/08/26 07:20:15;;;;;;;48.92;26.35;;;21.60;99.90;;;;;;5080794;28;20082;-70
2022/08/26 07:22:40;;;;;;;40.55;26.52;;;21.60;99.90;;;;;;5078157;28;20036;-70
2022/08/26 07:25:07;;;;;;;41.55;23.55;;;21.60;99.90;;;;;;5075709;28;20405;-69
2022/08/26 07:27:34;;;;;;;42.67;23.37;;;21.60;99.90;;;;;;5080981;28;20051;-70
2022/08/26 07:30:01;;;;;;;37.08;23.23;;;21.70;99.90;;;;;;5086847;28;20463;-70
2022/08/26 07:32:26;;;;;;;34.45;22.65;;;21.70;99.90;;;;;;5085715;28;20048;-70
2022/08/26 07:34:52;;;;;;;32.30;21.85;;;21.80;99.90;;;;;;5079986;28;20055;-70
2022/08/26 07:37:18;;;;;;;30.92;20.08;;;21.70;99.90;;;;;;5080124;28;20047;-70
2022/08/26 07:39:45;;;;;;;27.13;20.15;;;21.80;99.90;;;;;;5079606;28;20036;-68
2022/08/26 07:42:13;;;;;;;25.00;17.58;;;21.90;99.90;;;;;;5081491;28;20480;-68
2022/08/26 07:44:40;;;;;;;31.27;19.63;;;22.00;99.90;;;;;;5081148;28;20048;-69
2022/08/26 07:47:07;;;;;;;27.92;18.60;;;22.10;99.90;;;;;;5097957;28;20052;-69
2022/08/26 07:49:34;;;;;;;25.75;18.10;;;22.10;99.90;;;;;;5079914;28;20044;-70
2022/08/26 07:52:01;;;;;;;30.58;21.08;;;22.20;99.90;;;;;;5078416;28;20119;-69
2022/08/26 07:54:27;;;;;;;40.10;19.38;;;22.20;99.90;;;;;;5083035;28;20047;-70
2022/08/26 07:56:54;;;;;;;33.03;19.60;;;22.20;99.90;;;;;;5077259;28;20052;-69
2022/08/26 07:59:20;;;;;;;34.15;19.48;;;22.30;99.90;;;;;;5087501;28;20497;-69
2022/08/26 08:01:46;;;;;;;22.55;16.65;;;22.30;99.90;;;;;;5102086;28;20044;-69
2022/08/26 08:04:13;;;;;;;26.70;18.25;;;22.30;99.90;;;;;;5081311;28;20082;-69
2022/08/26 08:06:39;;;;;;;41.42;18.52;;;22.40;99.90;;;;;;5082842;28;20048;-69
2022/08/26 08:09:05;;;;;;;24.33;16.05;;;22.50;99.90;;;;;;5082482;28;20058;-69
2022/08/26 08:11:31;;;;;;;34.15;17.95;;;22.60;99.90;;;;;;5068176;28;20107;-69
2022/08/26 08:13:59;;;;;;;37.22;16.58;;;22.80;99.90;;;;;;5099750;28;20051;-69
2022/08/26 08:16:27;;;;;;;27.50;15.18;;;23.10;99.90;;;;;;5101852;27;20056;-69
2022/08/26 08:18:53;;;;;;;26.20;15.57;;;23.40;99.90;;;;;;5101583;27;20047;-69
2022/08/26 08:21:19;;;;;;;25.20;14.07;;;23.50;99.90;;;;;;5067364;28;20054;-69
2022/08/26 08:23:45;;;;;;;29.77;16.08;;;23.70;99.90;;;;;;5105130;28;20036;-69
2022/08/26 08:26:11;;;;;;;18.83;13.40;;;23.80;99.90;;;;;;5083272;28;20131;-70
2022/08/26 08:28:37;;;;;;;23.95;14.60;;;23.90;99.90;;;;;;5084141;28;20043;-69
2022/08/26 08:31:04;;;;;;;21.43;12.73;;;23.90;99.90;;;;;;5100644;27;20163;-69
2022/08/26 08:33:31;;;;;;;25.40;14.43;;;24.00;99.90;;;;;;5082660;28;20047;-69
2022/08/26 08:35:58;;;;;;;20.45;14.18;;;23.90;99.90;;;;;;5101568;27;20043;-68
2022/08/26 08:38:24;;;;;;;26.13;13.03;;;23.90;99.90;;;;;;5085236;28;20089;-68
2022/08/26 08:40:50;;;;;;;23.67;14.82;;;23.90;99.90;;;;;;5102877;28;20293;-69
2022/08/26 08:43:39;;;;;;;29.10;13.63;;;23.90;99.90;;;;;;5102079;28;21290;-69
2022/08/26 08:46:09;;;;;;;16.27;12.85;;;24.00;99.90;;;;;;5085638;28;20042;-69
2022/08/26 08:48:41;;;;;;;26.17;14.00;;;24.00;99.90;;;;;;5103871;27;20047;-69
2022/08/26 08:51:21;;;;;;;19.98;11.90;;;24.00;99.90;;;;;;5101440;27;20419;-69
2022/08/26 08:53:50;;;;;;;17.00;11.18;;;23.90;99.90;;;;;;5103724;28;20046;-68
2022/08/26 08:56:36;;;;;;;14.40;12.18;;;24.00;99.90;;;;;;5101943;27;20573;-69
2022/08/26 08:59:16;;;;;;;17.42;12.05;;;24.10;99.90;;;;;;5086529;28;20036;-68
2022/08/26 09:01:57;;;;;;;24.70;12.68;;;24.00;99.90;;;;;;5088236;28;20048;-69
2022/08/26 09:04:31;;;;;;;17.35;11.52;;;24.00;99.90;;;;;;5103603;28;20047;-68
2022/08/26 09:06:59;;;;;;;15.48;10.77;;;24.00;99.90;;;;;;5102708;27;20054;-68
2022/08/26 09:09:56;;;;;;;19.67;9.90;;;24.00;99.90;;;;;;5104076;28;20059;-68
2022/08/26 09:12:25;;;;;;;25.60;10.73;;;23.90;99.90;;;;;;5104421;27;20910;-67
2022/08/26 09:15:01;;;;;;;15.55;9.48;;;23.90;99.90;;;;;;5105992;27;20035;-68
2022/08/26 09:18:20;;;;;;;26.50;9.07;;;23.80;99.90;;;;;;5099376;28;20126;-68
2022/08/26 09:20:54;;;;;;;13.65;8.77;;;23.80;99.90;;;;;;5043915;28;20686;-67
2022/08/26 09:23:20;;;;;;;15.50;8.63;;;23.70;99.90;;;;;;5041707;28;20044;-67
2022/08/26 09:25:52;;;;;;;12.75;8.30;;;23.70;99.90;;;;;;5079638;28;20058;-68
2022/08/26 09:28:20;;;;;;;17.00;8.98;;;23.70;99.90;;;;;;5102653;27;20111;-68
2022/08/26 09:31:03;;;;;;;15.63;8.13;;;23.90;99.90;;;;;;5104137;28;20927;-68
2022/08/26 09:33:31;;;;;;;12.70;7.55;;;23.90;99.90;;;;;;5102574;28;20047;-68
2022/08/26 09:36:52;;;;;;;18.73;7.32;;;23.80;99.90;;;;;;5102536;28;20073;-67
2022/08/26 09:39:27;;;;;;;14.43;5.72;;;23.80;99.90;;;;;;5069404;28;20048;-68
2022/08/26 09:42:21;;;;;;;26.95;7.15;;;23.80;99.90;;;;;;5101661;28;20408;-68
2022/08/26 09:45:03;;;;;;;16.55;6.10;;;23.70;99.90;;;;;;5102323;27;20040;-68
2022/08/26 09:47:36;;;;;;;11.07;5.50;;;23.70;99.90;;;;;;5101221;28;20089;-68
2022/08/26 09:50:10;;;;;;;19.25;7.20;;;23.60;99.90;;;;;;5101680;28;20036;-67
2022/08/26 09:52:36;;;;;;;18.15;6.47;;;23.60;99.90;;;;;;5066995;28;20043;-68
2022/08/26 09:55:08;;;;;;;15.35;6.85;;;23.50;99.90;;;;;;5085240;28;20039;-68
2022/08/26 09:57:43;;;;;;;12.65;6.75;;;23.50;99.90;;;;;;5099878;28;20127;-67
2022/08/26 10:00:33;;;;;;;15.45;6.45;;;23.50;99.90;;;;;;5099137;28;20086;-68
2022/08/26 10:03:01;;;;;;;15.73;5.63;;;23.60;99.90;;;;;;5098597;28;20706;-68
2022/08/26 10:06:02;;;;;;;25.85;7.60;;;23.40;99.90;;;;;;5100597;28;20050;-68
2022/08/26 10:08:39;;;;;;;18.35;5.43;;;23.40;99.90;;;;;;5102756;28;20117;-68
2022/08/26 10:11:21;;;;;;;10.68;4.65;;;23.50;99.90;;;;;;5100863;28;20082;-68
2022/08/26 10:13:53;;;;;;;22.05;4.57;;;23.40;99.90;;;;;;5105513;28;20759;-69
2022/08/26 10:16:26;;;;;;;11.10;4.95;;;23.30;99.90;;;;;;5083747;28;20048;-69
2022/08/26 10:19:06;;;;;;;13.98;4.43;;;23.30;99.90;;;;;;5105784;28;20126;-69
2022/08/26 10:22:08;;;;;;;15.25;5.43;;;23.30;99.90;;;;;;5103966;27;20043;-69
2022/08/26 10:24:45;;;;;;;7.85;4.07;;;23.30;99.90;;;;;;5072273;28;20047;-69
2022/08/26 10:27:38;;;;;;;16.33;4.55;;;23.30;99.90;;;;;;5106451;28;20493;-69
2022/08/26 10:30:10;;;;;;;10.23;5.20;;;23.20;99.90;;;;;;5105328;27;20047;-69
2022/08/26 10:33:01;;;;;;;16.88;5.90;;;23.20;99.90;;;;;;5106927;28;20040;-70
2022/08/26 10:35:29;;;;;;;9.82;5.55;;;23.20;99.90;;;;;;5108243;28;20540;-68
2022/08/26 10:38:00;;;;;;;11.20;5.55;;;23.10;99.90;;;;;;5107229;28;20531;-68
2022/08/26 10:40:39;;;;;;;19.48;6.85;;;23.10;99.90;;;;;;5104771;28;20140;-68
2022/08/26 10:43:44;;;;;;;11.07;5.18;;;23.10;99.90;;;;;;5099023;27;20127;-69
2022/08/26 10:46:22;;;;;;;14.20;4.88;;;22.90;99.90;;;;;;5103018;27;21021;-69
2022/08/26 10:48:56;;;;;;;16.80;6.85;;;22.80;99.90;;;;;;5105373;27;20101;-69
2022/08/26 10:51:27;;;;;;;12.38;5.57;;;22.80;99.90;;;;;;5103868;27;20039;-69
2022/08/26 10:54:05;;;;;;;7.68;4.65;;;22.80;99.90;;;;;;5107867;28;20043;-68
2022/08/26 10:56:43;;;;;;;10.23;4.72;;;22.90;99.90;;;;;;5106537;28;20051;-68
2022/08/26 10:59:22;;;;;;;15.82;5.95;;;22.90;99.90;;;;;;5102687;28;20122;-68
2022/08/26 11:02:09;;;;;;;23.02;6.25;;;23.00;99.90;;;;;;5107491;27;20088;-68
2022/08/26 11:04:48;;;;;;;15.90;5.65;;;23.00;99.90;;;;;;5107574;27;20048;-68
2022/08/26 11:07:45;;;;;;;25.45;6.65;;;23.00;99.90;;;;;;5104966;27;20040;-68
2022/08/26 11:10:20;;;;;;;13.40;5.78;;;23.00;99.90;;;;;;5102123;27;20043;-69
2022/08/26 11:12:56;;;;;;;11.15;5.40;;;23.00;99.90;;;;;;5087726;27;20515;-68
2022/08/26 11:15:26;;;;;;;16.80;5.25;;;22.90;99.90;;;;;;5070274;28;20044;-67
2022/08/26 11:17:54;;;;;;;14.15;6.05;;;22.90;99.90;;;;;;5108824;27;20508;-68
2022/08/26 11:20:28;;;;;;;8.80;5.40;;;22.90;99.90;;;;;;5110441;27;20108;-68
2022/08/26 11:22:55;;;;;;;13.15;6.22;;;22.90;99.90;;;;;;5105775;27;20063;-68
2022/08/26 11:25:23;;;;;;;11.82;5.40;;;23.00;99.90;;;;;;5107566;27;20472;-68
2022/08/26 11:27:51;;;;;;;12.90;5.70;;;23.10;99.90;;;;;;5108898;27;20053;-69
2022/08/26 11:30:18;;;;;;;14.45;6.10;;;23.10;99.90;;;;;;5106255;27;20078;-69
2022/08/26 11:32:50;;;;;;;15.52;5.88;;;23.10;99.90;;;;;;5107868;27;20078;-69
2022/08/26 11:35:19;;;;;;;11.88;5.25;;;23.20;99.90;;;;;;5111522;27;20036;-69
2022/08/26 11:37:53;;;;;;;15.80;6.82;;;23.20;99.90;;;;;;5122246;27;20047;-68
2022/08/26 11:40:47;;;;;;;7.97;4.82;;;23.30;99.90;;;;;;5086050;28;20377;-68
2022/08/26 11:43:19;;;;;;;16.80;5.43;;;23.30;99.90;;;;;;5087991;27;20151;-68
2022/08/26 11:45:56;;;;;;;15.65;6.53;;;23.30;99.90;;;;;;5108085;27;20047;-69
2022/08/26 11:48:27;;;;;;;9.43;5.07;;;23.30;99.90;;;;;;5107559;27;20039;-69
2022/08/26 11:51:09;;;;;;;7.82;5.18;;;23.40;99.90;;;;;;5108321;27;20067;-69
2022/08/26 11:53:43;;;;;;;9.90;5.57;;;23.40;99.90;;;;;;5090049;28;20118;-69
2022/08/26 11:56:16;;;;;;;9.52;5.20;;;23.40;99.90;;;;;;5107210;28;20043;-68
2022/08/26 11:58:44;;;;;;;11.23;5.43;;;23.50;99.90;;;;;;5103152;27;20055;-69
2022/08/26 12:01:20;;;;;;;13.35;5.63;;;23.60;99.90;;;;;;5105171;27;20083;-68
2022/08/26 12:03:50;;;;;;;10.88;5.38;;;23.50;99.90;;;;;;5105299;27;20036;-69
2022/08/26 12:06:24;;;;;;;13.25;6.28;;;23.40;99.90;;;;;;5106091;27;20127;-69
2022/08/26 12:08:52;;;;;;;12.77;5.95;;;23.30;99.90;;;;;;5106465;27;20124;-69
2022/08/26 12:11:27;;;;;;;26.30;6.57;;;23.40;99.90;;;;;;5104711;27;20126;-69
2022/08/26 12:14:00;;;;;;;12.48;6.00;;;23.40;99.90;;;;;;5088829;27;20053;-68
2022/08/26 12:16:31;;;;;;;14.13;6.32;;;23.40;99.90;;;;;;5103171;27;20162;-69
2022/08/26 12:18:57;;;;;;;15.82;6.15;;;23.50;99.90;;;;;;5102952;27;20047;-68
2022/08/26 12:21:29;;;;;;;14.60;6.75;;;23.50;99.90;;;;;;5087807;27;20092;-69
2022/08/26 12:23:56;;;;;;;11.48;6.45;;;23.50;99.90;;;;;;5087725;28;20051;-68
2022/08/26 12:26:35;;;;;;;14.23;5.85;;;23.40;99.90;;;;;;5103671;28;20043;-68
2022/08/26 12:29:07;;;;;;;9.73;6.00;;;23.40;99.90;;;;;;5103416;27;20040;-69
2022/08/26 12:31:38;;;;;;;11.50;5.38;;;23.30;99.90;;;;;;5104660;27;20545;-69
2022/08/26 12:34:08;;;;;;;9.93;5.50;;;23.30;99.90;;;;;;5104139;27;20761;-70
2022/08/26 12:36:55;;;;;;;14.35;6.05;;;23.30;99.90;;;;;;5089112;28;20044;-69
2022/08/26 12:39:25;;;;;;;14.43;5.63;;;23.30;99.90;;;;;;5108229;27;20139;-69
2022/08/26 12:41:58;;;;;;;9.77;5.85;;;23.20;99.90;;;;;;5106439;27;20130;-69
2022/08/26 12:44:56;;;;;;;15.82;5.80;;;23.10;99.90;;;;;;5103269;27;20053;-69
2022/08/26 12:47:39;;;;;;;14.85;5.82;;;23.30;99.90;;;;;;5070988;27;20063;-69
2022/08/26 12:50:06;;;;;;;15.88;5.45;;;23.30;99.90;;;;;;5105525;27;20118;-69
2022/08/26 12:52:54;;;;;;;17.33;5.47;;;23.30;99.90;;;;;;5102549;28;20694;-70